sensor_id;sensor_type;location;lat;lon;timestamp;pressure;altitude;pressure_sealevel;temperature;humidity
10466;BME280;5280;42.600;23.556;2023-03-13T00:02:27;93628.88;;;0.84;77.63
10466;BME280;5280;42.600;23.556;2023-03-13T00:04:54;93623.03;;;0.77;79.73
10466;BME280;5280;42.600;23.556;2023-03-13T00:07:21;93631.47;;;0.84;79.26
10466;BME280;5280;42.600;23.556;2023-03-13T00:09:48;93603.44;;;0.69;80.42
10466;BME280;5280;42.600;23.556;2023-03-13T00:12:15;93622.03;;;0.81;79.61
10466;BME280;5280;42.600;23.556;2023-03-13T00:14:42;93629.88;;;0.80;78.10
10466;BME280;5280;42.600;23.556;2023-03-13T00:17:09;93639.31;;;0.82;79.44
10466;BME280;5280;42.600;23.556;2023-03-13T00:19:37;93593.00;;;0.47;79.80
10466;BME280;5280;42.600;23.556;2023-03-13T00:22:04;93633.22;;;0.83;79.46
10466;BME280;5280;42.600;23.556;2023-03-13T00:24:30;93641.22;;;0.79;78.95
10466;BME280;5280;42.600;23.556;2023-03-13T00:26:58;93645.34;;;0.84;79.62
10466;BME280;5280;42.600;23.556;2023-03-13T00:29:27;93630.72;;;0.80;80.16
10466;BME280;5280;42.600;23.556;2023-03-13T00:31:54;93633.00;;;0.66;80.46
10466;BME280;5280;42.600;23.556;2023-03-13T00:34:21;93622.81;;;0.60;81.54
10466;BME280;5280;42.600;23.556;2023-03-13T00:36:49;93640.53;;;0.74;81.48
10466;BME280;5280;42.600;23.556;2023-03-13T00:39:16;93626.78;;;0.70;81.41
10466;BME280;5280;42.600;23.556;2023-03-13T00:41:43;93629.63;;;0.64;81.52
10466;BME280;5280;42.600;23.556;2023-03-13T00:44:10;93624.59;;;0.60;83.34
10466;BME280;5280;42.600;23.556;2023-03-13T00:46:37;93630.31;;;0.69;82.28
10466;BME280;5280;42.600;23.556;2023-03-13T00:49:05;93638.88;;;0.71;80.54
10466;BME280;5280;42.600;23.556;2023-03-13T00:51:35;93630.31;;;0.69;79.92
10466;BME280;5280;42.600;23.556;2023-03-13T00:54:03;93644.81;;;0.75;79.74
10466;BME280;5280;42.600;23.556;2023-03-13T00:56:30;93649.91;;;0.78;78.92
10466;BME280;5280;42.600;23.556;2023-03-13T00:58:58;93625.34;;;0.63;79.35
10466;BME280;5280;42.600;23.556;2023-03-13T01:01:27;93634.94;;;0.61;78.56
10466;BME280;5280;42.600;23.556;2023-03-13T01:03:56;93650.25;;;0.69;80.08
10466;BME280;5280;42.600;23.556;2023-03-13T01:06:25;93642.72;;;0.61;80.50
10466;BME280;5280;42.600;23.556;2023-03-13T01:08:53;93638.78;;;0.51;80.27
10466;BME280;5280;42.600;23.556;2023-03-13T01:11:22;93648.78;;;0.62;80.70
10466;BME280;5280;42.600;23.556;2023-03-13T01:13:53;93643.59;;;0.62;80.14
10466;BME280;5280;42.600;23.556;2023-03-13T01:16:21;93635.41;;;0.49;79.14
10466;BME280;5280;42.600;23.556;2023-03-13T01:18:50;93648.28;;;0.52;80.36
10466;BME280;5280;42.600;23.556;2023-03-13T01:21:20;93655.44;;;0.46;79.01
10466;BME280;5280;42.600;23.556;2023-03-13T01:23:48;93658.03;;;0.46;79.83
10466;BME280;5280;42.600;23.556;2023-03-13T01:26:16;93639.25;;;0.39;79.51
10466;BME280;5280;42.600;23.556;2023-03-13T01:28:45;93652.75;;;0.49;79.28
10466;BME280;5280;42.600;23.556;2023-03-13T01:31:13;93649.97;;;0.53;79.97
10466;BME280;5280;42.600;23.556;2023-03-13T01:33:41;93639.63;;;0.52;79.72
10466;BME280;5280;42.600;23.556;2023-03-13T01:36:08;93648.91;;;0.59;81.27
10466;BME280;5280;42.600;23.556;2023-03-13T01:38:36;93636.25;;;0.50;81.47
10466;BME280;5280;42.600;23.556;2023-03-13T01:41:04;93635.31;;;0.51;80.44
10466;BME280;5280;42.600;23.556;2023-03-13T01:43:31;93648.50;;;0.46;81.17
10466;BME280;5280;42.600;23.556;2023-03-13T01:46:03;93640.00;;;0.41;80.93
10466;BME280;5280;42.600;23.556;2023-03-13T01:48:36;93654.53;;;0.47;80.31
10466;BME280;5280;42.600;23.556;2023-03-13T01:51:08;93655.41;;;0.47;80.15
10466;BME280;5280;42.600;23.556;2023-03-13T01:53:40;93655.41;;;0.47;80.28
10466;BME280;5280;42.600;23.556;2023-03-13T01:56:12;93667.72;;;0.42;80.49
10466;BME280;5280;42.600;23.556;2023-03-13T01:58:40;93621.69;;;0.21;81.00
10466;BME280;5280;42.600;23.556;2023-03-13T02:01:08;93658.03;;;0.46;80.76
10466;BME280;5280;42.600;23.556;2023-03-13T02:03:36;93618.59;;;0.11;81.18
10466;BME280;5280;42.600;23.556;2023-03-13T02:06:05;93662.63;;;0.39;80.79
10466;BME280;5280;42.600;23.556;2023-03-13T02:08:35;93676.53;;;0.38;81.08
10466;BME280;5280;42.600;23.556;2023-03-13T02:11:09;93669.06;;;0.29;80.34
10466;BME280;5280;42.600;23.556;2023-03-13T02:13:39;93670.84;;;0.27;81.24
10466;BME280;5280;42.600;23.556;2023-03-13T02:16:10;93652.38;;;0.11;81.09
10466;BME280;5280;42.600;23.556;2023-03-13T02:18:37;93673.63;;;0.22;80.87
10466;BME280;5280;42.600;23.556;2023-03-13T02:21:15;93666.66;;;-0.01;82.80
10466;BME280;5280;42.600;23.556;2023-03-13T02:23:52;93677.28;;;0.17;82.96
10466;BME280;5280;42.600;23.556;2023-03-13T02:26:23;93669.41;;;0.20;82.70
10466;BME280;5280;42.600;23.556;2023-03-13T02:28:50;93668.59;;;0.18;81.71
10466;BME280;5280;42.600;23.556;2023-03-13T02:31:17;93683.97;;;0.24;80.77
10466;BME280;5280;42.600;23.556;2023-03-13T02:33:46;93687.59;;;0.20;79.77
10466;BME280;5280;42.600;23.556;2023-03-13T02:36:13;93682.16;;;0.26;78.03
10466;BME280;5280;42.600;23.556;2023-03-13T02:38:46;93683.91;;;0.25;78.13
10466;BME280;5280;42.600;23.556;2023-03-13T02:41:15;93668.81;;;0.12;78.97
10466;BME280;5280;42.600;23.556;2023-03-13T02:43:43;93693.59;;;0.20;79.88
10466;BME280;5280;42.600;23.556;2023-03-13T02:46:12;93684.31;;;0.15;80.39
10466;BME280;5280;42.600;23.556;2023-03-13T02:48:41;93685.97;;;0.16;80.45
10466;BME280;5280;42.600;23.556;2023-03-13T02:51:13;93707.38;;;0.24;80.53
10466;BME280;5280;42.600;23.556;2023-03-13T02:53:43;93698.88;;;0.19;80.76
10466;BME280;5280;42.600;23.556;2023-03-13T02:56:13;93704.94;;;0.19;80.50
10466;BME280;5280;42.600;23.556;2023-03-13T02:58:43;93716.00;;;0.24;79.43
10466;BME280;5280;42.600;23.556;2023-03-13T03:01:09;93692.38;;;0.06;76.50
10466;BME280;5280;42.600;23.556;2023-03-13T03:03:36;93724.16;;;0.14;76.19
10466;BME280;5280;42.600;23.556;2023-03-13T03:06:05;93731.81;;;0.18;75.76
10466;BME280;5280;42.600;23.556;2023-03-13T03:08:35;93714.19;;;0.02;75.14
10466;BME280;5280;42.600;23.556;2023-03-13T03:11:06;93733.78;;;0.10;77.55
10466;BME280;5280;42.600;23.556;2023-03-13T03:13:33;93724.38;;;0.08;78.54
10466;BME280;5280;42.600;23.556;2023-03-13T03:16:06;93728.91;;;0.01;79.69
10466;BME280;5280;42.600;23.556;2023-03-13T03:18:33;93730.59;;;0.04;80.21
10466;BME280;5280;42.600;23.556;2023-03-13T03:21:00;93725.59;;;-0.03;80.19
10466;BME280;5280;42.600;23.556;2023-03-13T03:23:29;93654.31;;;-0.45;80.39
10466;BME280;5280;42.600;23.556;2023-03-13T03:25:56;93735.84;;;0.00;80.83
10466;BME280;5280;42.600;23.556;2023-03-13T03:28:22;93735.09;;;-0.02;80.85
10466;BME280;5280;42.600;23.556;2023-03-13T03:30:49;93741.97;;;-0.01;81.43
10466;BME280;5280;42.600;23.556;2023-03-13T03:33:20;93747.25;;;-0.04;80.64
10466;BME280;5280;42.600;23.556;2023-03-13T03:35:47;93743.03;;;-0.06;79.23
10466;BME280;5280;42.600;23.556;2023-03-13T03:38:13;93760.34;;;-0.07;78.97
10466;BME280;5280;42.600;23.556;2023-03-13T03:40:40;93710.34;;;-0.39;77.95
10466;BME280;5280;42.600;23.556;2023-03-13T03:43:07;93759.97;;;-0.21;78.74
10466;BME280;5280;42.600;23.556;2023-03-13T03:45:34;93765.78;;;-0.14;79.33
10466;BME280;5280;42.600;23.556;2023-03-13T03:48:00;93707.63;;;-0.61;79.79
10466;BME280;5280;42.600;23.556;2023-03-13T03:50:28;93779.94;;;-0.23;79.97
10466;BME280;5280;42.600;23.556;2023-03-13T03:52:55;93785.94;;;-0.21;79.82
10466;BME280;5280;42.600;23.556;2023-03-13T03:55:22;93780.34;;;-0.35;79.99
10466;BME280;5280;42.600;23.556;2023-03-13T03:57:51;93770.72;;;-0.33;80.22
10466;BME280;5280;42.600;23.556;2023-03-13T04:00:18;93795.66;;;-0.27;80.45
10466;BME280;5280;42.600;23.556;2023-03-13T04:02:45;93772.16;;;-0.51;80.97
10466;BME280;5280;42.600;23.556;2023-03-13T04:05:12;93793.16;;;-0.30;80.67
10466;BME280;5280;42.600;23.556;2023-03-13T04:07:40;93810.28;;;-0.25;79.44
10466;BME280;5280;42.600;23.556;2023-03-13T04:10:08;93811.19;;;-0.26;80.17
10466;BME280;5280;42.600;23.556;2023-03-13T04:12:35;93805.38;;;-0.34;80.82
10466;BME280;5280;42.600;23.556;2023-03-13T04:15:02;93809.06;;;-0.41;81.53
10466;BME280;5280;42.600;23.556;2023-03-13T04:17:29;93792.09;;;-0.51;81.62
10466;BME280;5280;42.600;23.556;2023-03-13T04:19:56;93804.19;;;-0.50;81.73
10466;BME280;5280;42.600;23.556;2023-03-13T04:22:23;93822.84;;;-0.39;81.13
10466;BME280;5280;42.600;23.556;2023-03-13T04:24:51;93813.41;;;-0.41;81.04
10466;BME280;5280;42.600;23.556;2023-03-13T04:27:18;93826.28;;;-0.38;81.50
10466;BME280;5280;42.600;23.556;2023-03-13T04:29:45;93821.16;;;-0.40;82.97
10466;BME280;5280;42.600;23.556;2023-03-13T04:32:12;93828.03;;;-0.39;82.71
10466;BME280;5280;42.600;23.556;2023-03-13T04:34:38;93829.75;;;-0.38;82.43
10466;BME280;5280;42.600;23.556;2023-03-13T04:37:05;93827.19;;;-0.39;82.45
10466;BME280;5280;42.600;23.556;2023-03-13T04:39:33;93835.09;;;-0.44;80.47
10466;BME280;5280;42.600;23.556;2023-03-13T04:42:01;93844.56;;;-0.41;80.11
10466;BME280;5280;42.600;23.556;2023-03-13T04:44:28;93844.72;;;-0.46;80.70
10466;BME280;5280;42.600;23.556;2023-03-13T04:46:54;93832.72;;;-0.50;82.09
10466;BME280;5280;42.600;23.556;2023-03-13T04:49:21;93858.69;;;-0.50;81.75
10466;BME280;5280;42.600;23.556;2023-03-13T04:51:48;93868.38;;;-0.57;80.14
10466;BME280;5280;42.600;23.556;2023-03-13T04:54:15;93852.78;;;-0.55;78.71
10466;BME280;5280;42.600;23.556;2023-03-13T04:56:41;93870.59;;;-0.45;77.65
10466;BME280;5280;42.600;23.556;2023-03-13T04:59:10;93883.56;;;-0.45;78.31
10466;BME280;5280;42.600;23.556;2023-03-13T05:01:40;93882.78;;;-0.47;78.09
10466;BME280;5280;42.600;23.556;2023-03-13T05:04:08;93887.13;;;-0.47;77.42
10466;BME280;5280;42.600;23.556;2023-03-13T05:06:35;93872.59;;;-0.53;78.11
10466;BME280;5280;42.600;23.556;2023-03-13T05:09:02;93882.97;;;-0.53;79.13
10466;BME280;5280;42.600;23.556;2023-03-13T05:11:29;93878.81;;;-0.58;79.01
10466;BME280;5280;42.600;23.556;2023-03-13T05:13:56;93885.53;;;-0.51;78.49
10466;BME280;5280;42.600;23.556;2023-03-13T05:16:24;93883.72;;;-0.49;79.71
10466;BME280;5280;42.600;23.556;2023-03-13T05:18:51;93882.81;;;-0.48;81.09
10466;BME280;5280;42.600;23.556;2023-03-13T05:21:17;93875.31;;;-0.57;81.74
10466;BME280;5280;42.600;23.556;2023-03-13T05:23:44;93865.03;;;-0.60;82.32
10466;BME280;5280;42.600;23.556;2023-03-13T05:26:11;93857.38;;;-0.65;82.40
10466;BME280;5280;42.600;23.556;2023-03-13T05:28:38;93888.75;;;-0.43;83.63
10466;BME280;5280;42.600;23.556;2023-03-13T05:31:04;93899.88;;;-0.39;84.19
10466;BME280;5280;42.600;23.556;2023-03-13T05:33:33;93899.06;;;-0.40;84.03
10466;BME280;5280;42.600;23.556;2023-03-13T05:35:59;93900.72;;;-0.39;82.86
10466;BME280;5280;42.600;23.556;2023-03-13T05:38:26;93900.66;;;-0.36;82.49
10466;BME280;5280;42.600;23.556;2023-03-13T05:40:53;93898.09;;;-0.37;80.66
10466;BME280;5280;42.600;23.556;2023-03-13T05:43:20;93907.44;;;-0.32;79.48
10466;BME280;5280;42.600;23.556;2023-03-13T05:45:46;93907.56;;;-0.35;80.52
10466;BME280;5280;42.600;23.556;2023-03-13T05:48:13;93902.53;;;-0.41;80.44
10466;BME280;5280;42.600;23.556;2023-03-13T05:50:41;93922.94;;;-0.29;80.45
10466;BME280;5280;42.600;23.556;2023-03-13T05:53:08;93901.59;;;-0.38;80.36
10466;BME280;5280;42.600;23.556;2023-03-13T05:55:35;93907.34;;;-0.29;80.92
10466;BME280;5280;42.600;23.556;2023-03-13T05:58:05;93912.25;;;-0.20;81.44
10466;BME280;5280;42.600;23.556;2023-03-13T06:00:32;93917.28;;;-0.14;81.90
10466;BME280;5280;42.600;23.556;2023-03-13T06:02:59;93907.00;;;-0.17;82.46
10466;BME280;5280;42.600;23.556;2023-03-13T06:05:26;93919.69;;;-0.08;83.02
10466;BME280;5280;42.600;23.556;2023-03-13T06:07:54;93900.94;;;-0.17;82.86
10466;BME280;5280;42.600;23.556;2023-03-13T06:10:21;93925.59;;;-0.03;82.20
10466;BME280;5280;42.600;23.556;2023-03-13T06:12:51;93926.47;;;-0.02;83.08
10466;BME280;5280;42.600;23.556;2023-03-13T06:15:18;93909.56;;;-0.15;83.04
10466;BME280;5280;42.600;23.556;2023-03-13T06:17:46;93934.69;;;0.12;82.51
10466;BME280;5280;42.600;23.556;2023-03-13T06:20:13;93907.53;;;-0.06;82.36
10466;BME280;5280;42.600;23.556;2023-03-13T06:22:43;93904.50;;;0.08;82.49
10466;BME280;5280;42.600;23.556;2023-03-13T06:25:11;93892.66;;;-0.01;82.67
10466;BME280;5280;42.600;23.556;2023-03-13T06:27:39;93938.25;;;0.36;82.42
10466;BME280;5280;42.600;23.556;2023-03-13T06:30:08;93937.19;;;0.43;81.88
10466;BME280;5280;42.600;23.556;2023-03-13T06:32:35;93942.03;;;0.54;82.21
10466;BME280;5280;42.600;23.556;2023-03-13T06:35:02;93933.78;;;0.67;80.89
10466;BME280;5280;42.600;23.556;2023-03-13T06:37:29;93933.66;;;0.70;79.50
10466;BME280;5280;42.600;23.556;2023-03-13T06:39:58;93936.81;;;0.80;77.49
10466;BME280;5280;42.600;23.556;2023-03-13T06:42:26;93937.63;;;0.82;78.19
10466;BME280;5280;42.600;23.556;2023-03-13T06:44:53;93947.78;;;0.90;75.63
10466;BME280;5280;42.600;23.556;2023-03-13T06:47:20;93936.41;;;0.92;77.35
10466;BME280;5280;42.600;23.556;2023-03-13T06:49:47;93930.84;;;1.03;75.04
10466;BME280;5280;42.600;23.556;2023-03-13T06:52:14;93932.19;;;1.14;74.91
10466;BME280;5280;42.600;23.556;2023-03-13T06:54:41;93925.81;;;1.23;73.89
10466;BME280;5280;42.600;23.556;2023-03-13T06:57:08;93916.66;;;1.36;73.85
10466;BME280;5280;42.600;23.556;2023-03-13T06:59:36;93917.28;;;1.43;72.30
10466;BME280;5280;42.600;23.556;2023-03-13T07:02:03;93916.25;;;1.47;71.69
10466;BME280;5280;42.600;23.556;2023-03-13T07:04:30;93896.91;;;1.54;72.26
10466;BME280;5280;42.600;23.556;2023-03-13T07:06:57;93906.78;;;1.69;71.04
10466;BME280;5280;42.600;23.556;2023-03-13T07:09:24;93899.91;;;1.66;72.71
10466;BME280;5280;42.600;23.556;2023-03-13T07:11:51;93903.66;;;1.83;74.10
10466;BME280;5280;42.600;23.556;2023-03-13T07:14:17;93909.50;;;1.89;76.02
10466;BME280;5280;42.600;23.556;2023-03-13T07:16:45;93903.75;;;2.03;76.22
10466;BME280;5280;42.600;23.556;2023-03-13T07:19:12;93888.03;;;2.04;76.02
10466;BME280;5280;42.600;23.556;2023-03-13T07:21:40;93900.19;;;2.27;77.02
10466;BME280;5280;42.600;23.556;2023-03-13T07:24:07;93906.97;;;2.31;75.61
10466;BME280;5280;42.600;23.556;2023-03-13T07:26:34;93903.25;;;2.37;76.75
10466;BME280;5280;42.600;23.556;2023-03-13T07:29:00;93896.34;;;2.36;75.28
10466;BME280;5280;42.600;23.556;2023-03-13T07:31:28;93899.34;;;2.48;75.04
10466;BME280;5280;42.600;23.556;2023-03-13T07:33:59;93908.81;;;2.49;74.25
10466;BME280;5280;42.600;23.556;2023-03-13T07:36:26;93913.69;;;2.58;76.83
10466;BME280;5280;42.600;23.556;2023-03-13T07:38:54;93905.41;;;2.69;75.06
10466;BME280;5280;42.600;23.556;2023-03-13T07:41:21;93901.72;;;2.75;74.66
10466;BME280;5280;42.600;23.556;2023-03-13T07:43:48;93913.59;;;2.82;74.54
10466;BME280;5280;42.600;23.556;2023-03-13T07:46:16;93904.47;;;2.92;73.47
10466;BME280;5280;42.600;23.556;2023-03-13T07:48:44;93900.97;;;2.93;73.66
10466;BME280;5280;42.600;23.556;2023-03-13T07:51:14;93896.06;;;3.06;73.30
10466;BME280;5280;42.600;23.556;2023-03-13T07:53:41;93913.38;;;3.28;72.88
10466;BME280;5280;42.600;23.556;2023-03-13T07:56:10;93913.94;;;3.35;71.57
10466;BME280;5280;42.600;23.556;2023-03-13T07:58:39;93918.19;;;3.37;71.66
10466;BME280;5280;42.600;23.556;2023-03-13T08:01:09;93896.03;;;3.46;70.86
10466;BME280;5280;42.600;23.556;2023-03-13T08:03:37;93894.13;;;3.50;69.80
10466;BME280;5280;42.600;23.556;2023-03-13T08:06:11;93916.56;;;3.74;68.88
10466;BME280;5280;42.600;23.556;2023-03-13T08:08:39;93875.91;;;3.68;68.86
10466;BME280;5280;42.600;23.556;2023-03-13T08:11:08;93897.50;;;3.90;68.04
10466;BME280;5280;42.600;23.556;2023-03-13T08:13:35;93899.59;;;4.03;67.30
10466;BME280;5280;42.600;23.556;2023-03-13T08:16:06;93872.69;;;3.99;66.15
10466;BME280;5280;42.600;23.556;2023-03-13T08:18:35;93852.56;;;4.01;66.61
10466;BME280;5280;42.600;23.556;2023-03-13T08:21:03;93871.69;;;4.39;64.90
10466;BME280;5280;42.600;23.556;2023-03-13T08:23:30;93857.44;;;4.45;65.71
10466;BME280;5280;42.600;23.556;2023-03-13T08:26:02;93867.69;;;4.68;64.08
10466;BME280;5280;42.600;23.556;2023-03-13T08:28:29;93859.97;;;4.82;63.34
10466;BME280;5280;42.600;23.556;2023-03-13T08:30:56;93861.97;;;4.94;62.49
10466;BME280;5280;42.600;23.556;2023-03-13T08:33:23;93864.47;;;4.97;63.15
10466;BME280;5280;42.600;23.556;2023-03-13T08:35:50;93856.44;;;5.00;62.87
10466;BME280;5280;42.600;23.556;2023-03-13T08:38:16;93874.16;;;5.12;63.09
10466;BME280;5280;42.600;23.556;2023-03-13T08:40:43;93851.56;;;5.10;62.35
10466;BME280;5280;42.600;23.556;2023-03-13T08:43:11;93877.38;;;5.35;61.64
10466;BME280;5280;42.600;23.556;2023-03-13T08:45:38;93866.56;;;5.41;60.96
10466;BME280;5280;42.600;23.556;2023-03-13T08:48:05;93852.00;;;5.35;61.22
10466;BME280;5280;42.600;23.556;2023-03-13T08:50:32;93880.66;;;5.55;59.80
10466;BME280;5280;42.600;23.556;2023-03-13T08:52:59;93891.94;;;5.73;60.99
10466;BME280;5280;42.600;23.556;2023-03-13T08:55:26;93876.63;;;5.66;61.06
10466;BME280;5280;42.600;23.556;2023-03-13T08:57:53;93890.00;;;5.94;58.43
10466;BME280;5280;42.600;23.556;2023-03-13T09:00:21;93896.97;;;6.11;58.03
10466;BME280;5280;42.600;23.556;2023-03-13T09:02:48;93862.94;;;6.09;56.97
10466;BME280;5280;42.600;23.556;2023-03-13T09:05:14;93866.28;;;6.13;58.24
10466;BME280;5280;42.600;23.556;2023-03-13T09:07:41;93876.59;;;6.31;57.68
10466;BME280;5280;42.600;23.556;2023-03-13T09:10:09;93874.72;;;6.33;58.09
10466;BME280;5280;42.600;23.556;2023-03-13T09:12:36;93874.31;;;6.41;58.43
10466;BME280;5280;42.600;23.556;2023-03-13T09:15:03;93863.88;;;6.39;57.26
10466;BME280;5280;42.600;23.556;2023-03-13T09:17:31;93858.31;;;6.45;55.21
10466;BME280;5280;42.600;23.556;2023-03-13T09:19:58;93867.28;;;6.57;55.91
10466;BME280;5280;42.600;23.556;2023-03-13T09:22:27;93862.03;;;6.57;56.12
10466;BME280;5280;42.600;23.556;2023-03-13T09:24:54;93841.75;;;6.59;56.83
10466;BME280;5280;42.600;23.556;2023-03-13T09:27:21;93861.47;;;6.82;55.88
10466;BME280;5280;42.600;23.556;2023-03-13T09:29:48;93860.91;;;7.07;55.65
10466;BME280;5280;42.600;23.556;2023-03-13T09:32:15;93862.66;;;7.22;56.88
10466;BME280;5280;42.600;23.556;2023-03-13T09:34:46;93836.72;;;7.16;55.79
10466;BME280;5280;42.600;23.556;2023-03-13T09:37:14;93854.28;;;7.29;56.48
10466;BME280;5280;42.600;23.556;2023-03-13T09:39:40;93862.09;;;7.31;56.04
10466;BME280;5280;42.600;23.556;2023-03-13T09:42:12;93866.50;;;7.30;56.07
10466;BME280;5280;42.600;23.556;2023-03-13T09:44:44;93876.00;;;7.47;53.86
10466;BME280;5280;42.600;23.556;2023-03-13T09:47:17;93859.44;;;7.61;54.91
10466;BME280;5280;42.600;23.556;2023-03-13T09:49:51;93821.09;;;7.57;53.30
10466;BME280;5280;42.600;23.556;2023-03-13T09:52:23;93862.84;;;7.77;55.52
10466;BME280;5280;42.600;23.556;2023-03-13T09:54:54;93863.28;;;7.84;53.68
10466;BME280;5280;42.600;23.556;2023-03-13T09:57:29;93834.72;;;7.77;53.10
10466;BME280;5280;42.600;23.556;2023-03-13T10:00:00;93871.28;;;8.10;53.11
10466;BME280;5280;42.600;23.556;2023-03-13T10:02:32;93865.16;;;8.24;52.21
10466;BME280;5280;42.600;23.556;2023-03-13T10:05:13;93853.69;;;8.25;52.34
10466;BME280;5280;42.600;23.556;2023-03-13T10:07:42;93853.88;;;8.36;52.30
10466;BME280;5280;42.600;23.556;2023-03-13T10:10:14;93851.31;;;8.49;52.00
10466;BME280;5280;42.600;23.556;2023-03-13T10:12:44;93854.03;;;8.47;50.73
10466;BME280;5280;42.600;23.556;2023-03-13T10:15:36;93847.22;;;8.57;53.66
10466;BME280;5280;42.600;23.556;2023-03-13T10:18:14;93806.44;;;8.50;51.19
10466;BME280;5280;42.600;23.556;2023-03-13T10:20:45;93828.94;;;8.69;51.76
10466;BME280;5280;42.600;23.556;2023-03-13T10:23:15;93828.00;;;8.70;51.46
10466;BME280;5280;42.600;23.556;2023-03-13T10:25:43;93815.94;;;8.80;50.90
10466;BME280;5280;42.600;23.556;2023-03-13T10:28:12;93773.16;;;8.62;50.11
10466;BME280;5280;42.600;23.556;2023-03-13T10:30:43;93817.69;;;9.06;50.12
10466;BME280;5280;42.600;23.556;2023-03-13T10:33:21;93809.13;;;9.02;50.86
10466;BME280;5280;42.600;23.556;2023-03-13T10:36:04;93803.66;;;9.05;48.75
10466;BME280;5280;42.600;23.556;2023-03-13T10:38:33;93797.78;;;9.15;48.57
10466;BME280;5280;42.600;23.556;2023-03-13T10:41:05;93788.72;;;9.19;49.82
10466;BME280;5280;42.600;23.556;2023-03-13T10:43:34;93786.50;;;9.25;47.71
10466;BME280;5280;42.600;23.556;2023-03-13T10:46:01;93768.88;;;9.13;48.14
10466;BME280;5280;42.600;23.556;2023-03-13T10:48:29;93778.19;;;9.31;50.36
10466;BME280;5280;42.600;23.556;2023-03-13T10:51:02;93760.22;;;9.24;48.52
10466;BME280;5280;42.600;23.556;2023-03-13T10:53:32;93761.50;;;9.43;48.75
10466;BME280;5280;42.600;23.556;2023-03-13T10:56:04;93747.34;;;9.32;50.90
10466;BME280;5280;42.600;23.556;2023-03-13T10:58:40;93745.88;;;9.53;49.22
10466;BME280;5280;42.600;23.556;2023-03-13T11:01:14;93751.38;;;9.63;49.26
10466;BME280;5280;42.600;23.556;2023-03-13T11:03:43;93757.69;;;9.73;49.12
10466;BME280;5280;42.600;23.556;2023-03-13T11:06:26;93748.41;;;9.80;47.49
10466;BME280;5280;42.600;23.556;2023-03-13T11:09:04;93730.44;;;9.85;47.43
10466;BME280;5280;42.600;23.556;2023-03-13T11:11:46;93745.00;;;9.90;46.82
10466;BME280;5280;42.600;23.556;2023-03-13T11:14:16;93746.66;;;10.04;47.49
10466;BME280;5280;42.600;23.556;2023-03-13T11:16:48;93745.38;;;10.22;48.62
10466;BME280;5280;42.600;23.556;2023-03-13T11:19:34;93708.81;;;10.16;46.60
10466;BME280;5280;42.600;23.556;2023-03-13T11:22:22;93730.38;;;10.23;46.76
10466;BME280;5280;42.600;23.556;2023-03-13T11:24:59;93722.59;;;10.32;46.88
10466;BME280;5280;42.600;23.556;2023-03-13T11:27:33;93729.00;;;10.41;46.04
10466;BME280;5280;42.600;23.556;2023-03-13T11:30:11;93717.22;;;10.34;46.20
10466;BME280;5280;42.600;23.556;2023-03-13T11:32:42;93717.31;;;10.32;45.79
10466;BME280;5280;42.600;23.556;2023-03-13T11:35:22;93719.47;;;10.27;46.40
10466;BME280;5280;42.600;23.556;2023-03-13T11:37:55;93714.31;;;10.26;47.85
10466;BME280;5280;42.600;23.556;2023-03-13T11:40:26;93715.31;;;10.36;47.08
10466;BME280;5280;42.600;23.556;2023-03-13T11:43:16;93703.00;;;10.48;45.62
10466;BME280;5280;42.600;23.556;2023-03-13T11:46:00;93698.81;;;10.56;45.58
10466;BME280;5280;42.600;23.556;2023-03-13T11:51:40;93693.94;;;10.63;46.41
10466;BME280;5280;42.600;23.556;2023-03-13T11:54:29;93689.88;;;10.70;44.72
10466;BME280;5280;42.600;23.556;2023-03-13T11:57:04;93681.13;;;10.69;44.80
10466;BME280;5280;42.600;23.556;2023-03-13T11:59:41;93655.44;;;10.48;45.93
10466;BME280;5280;42.600;23.556;2023-03-13T12:02:17;93677.88;;;10.66;45.60
10466;BME280;5280;42.600;23.556;2023-03-13T12:04:51;93658.97;;;10.59;44.28
10466;BME280;5280;42.600;23.556;2023-03-13T12:07:24;93663.31;;;10.71;44.92
10466;BME280;5280;42.600;23.556;2023-03-13T12:09:55;93656.72;;;10.77;44.41
10466;BME280;5280;42.600;23.556;2023-03-13T12:12:32;93646.50;;;10.72;43.49
10466;BME280;5280;42.600;23.556;2023-03-13T12:15:15;93655.53;;;10.81;44.53
10466;BME280;5280;42.600;23.556;2023-03-13T12:17:48;93650.75;;;10.86;45.16
10466;BME280;5280;42.600;23.556;2023-03-13T12:20:21;93653.88;;;10.91;45.34
10466;BME280;5280;42.600;23.556;2023-03-13T12:22:56;93642.38;;;11.03;44.01
10466;BME280;5280;42.600;23.556;2023-03-13T12:25:29;93637.47;;;11.10;44.93
10466;BME280;5280;42.600;23.556;2023-03-13T12:28:05;93635.06;;;11.18;43.23
10466;BME280;5280;42.600;23.556;2023-03-13T12:30:43;93637.47;;;11.32;43.83
10466;BME280;5280;42.600;23.556;2023-03-13T12:33:17;93636.63;;;11.32;44.90
10466;BME280;5280;42.600;23.556;2023-03-13T12:35:48;93635.06;;;11.29;43.19
10466;BME280;5280;42.600;23.556;2023-03-13T12:38:22;93634.47;;;11.37;44.32
10466;BME280;5280;42.600;23.556;2023-03-13T12:40:56;93623.16;;;11.35;42.50
10466;BME280;5280;42.600;23.556;2023-03-13T12:43:30;93625.56;;;11.38;43.57
10466;BME280;5280;42.600;23.556;2023-03-13T12:46:16;93611.00;;;11.32;43.78
10466;BME280;5280;42.600;23.556;2023-03-13T12:48:59;93608.97;;;11.25;42.31
10466;BME280;5280;42.600;23.556;2023-03-13T12:51:47;93616.91;;;11.47;43.36
10466;BME280;5280;42.600;23.556;2023-03-13T12:54:37;93618.59;;;11.59;42.36
10466;BME280;5280;42.600;23.556;2023-03-13T12:57:17;93632.88;;;11.68;42.48
10466;BME280;5280;42.600;23.556;2023-03-13T12:59:52;93642.91;;;11.75;41.83
10466;BME280;5280;42.600;23.556;2023-03-13T13:02:24;93583.13;;;11.50;41.71
10466;BME280;5280;42.600;23.556;2023-03-13T13:04:52;93628.19;;;11.93;41.79
10466;BME280;5280;42.600;23.556;2023-03-13T13:07:25;93624.91;;;12.01;40.38
10466;BME280;5280;42.600;23.556;2023-03-13T13:10:03;93607.28;;;11.90;41.18
10466;BME280;5280;42.600;23.556;2023-03-13T13:12:41;93618.63;;;12.13;41.12
10466;BME280;5280;42.600;23.556;2023-03-13T13:15:18;93626.13;;;12.08;41.07
10466;BME280;5280;42.600;23.556;2023-03-13T13:17:59;93610.97;;;11.99;41.51
10466;BME280;5280;42.600;23.556;2023-03-13T13:20:32;93637.53;;;12.20;39.80
10466;BME280;5280;42.600;23.556;2023-03-13T13:23:21;93624.50;;;12.17;40.40
10466;BME280;5280;42.600;23.556;2023-03-13T13:25:49;93629.28;;;12.34;40.34